sensor_id;sensor_type;location;lat;lon;timestamp;pressure;altitude;pressure_sealevel;temperature;humidity
27304;BME280;14791;52.392;13.092;2023-05-02T00:00:16;100900.88;;;19.99;28.38
27304;BME280;14791;52.392;13.092;2023-05-02T00:02:45;100899.83;;;19.96;28.35
27304;BME280;14791;52.392;13.092;2023-05-02T00:05:14;100900.28;;;19.91;28.37
27304;BME280;14791;52.392;13.092;2023-05-02T00:07:43;100897.69;;;19.86;28.43
27304;BME280;14791;52.392;13.092;2023-05-02T00:10:12;100905.42;;;19.81;28.43
27304;BME280;14791;52.392;13.092;2023-05-02T00:12:41;100899.61;;;19.75;28.54
27304;BME280;14791;52.392;13.092;2023-05-02T00:15:09;100903.24;;;19.70;28.65
27304;BME280;14791;52.392;13.092;2023-05-02T00:17:42;100902.47;;;19.64;28.69
27304;BME280;14791;52.392;13.092;2023-05-02T00:20:11;100899.36;;;19.59;28.77
27304;BME280;14791;52.392;13.092;2023-05-02T00:22:40;100904.00;;;19.53;28.83
27304;BME280;14791;52.392;13.092;2023-05-02T00:25:09;100897.84;;;19.47;28.92
27304;BME280;14791;52.392;13.092;2023-05-02T00:27:39;100899.98;;;19.43;29.00
27304;BME280;14791;52.392;13.092;2023-05-02T00:30:09;100902.79;;;19.38;29.04
27304;BME280;14791;52.392;13.092;2023-05-02T00:32:38;100896.59;;;19.31;29.09
27304;BME280;14791;52.392;13.092;2023-05-02T00:35:08;100895.17;;;19.27;29.14
27304;BME280;14791;52.392;13.092;2023-05-02T00:37:37;100897.84;;;19.23;29.20
27304;BME280;14791;52.392;13.092;2023-05-02T00:40:07;100900.86;;;19.20;29.22
27304;BME280;14791;52.392;13.092;2023-05-02T00:42:36;100894.02;;;19.16;29.26
27304;BME280;14791;52.392;13.092;2023-05-02T00:45:05;100895.80;;;19.11;29.33
27304;BME280;14791;52.392;13.092;2023-05-02T00:47:35;100890.83;;;19.07;29.39
27304;BME280;14791;52.392;13.092;2023-05-02T00:50:05;100892.11;;;19.03;29.45
27304;BME280;14791;52.392;13.092;2023-05-02T00:52:34;100891.36;;;18.97;29.55
27304;BME280;14791;52.392;13.092;2023-05-02T00:55:03;100886.89;;;18.91;29.61
27304;BME280;14791;52.392;13.092;2023-05-02T00:57:32;100891.84;;;18.86;29.70
27304;BME280;14791;52.392;13.092;2023-05-02T01:00:02;100896.72;;;18.83;29.72
27304;BME280;14791;52.392;13.092;2023-05-02T01:02:47;100890.38;;;18.78;29.74
27304;BME280;14791;52.392;13.092;2023-05-02T01:05:19;100898.25;;;18.76;29.75
27304;BME280;14791;52.392;13.092;2023-05-02T01:08:03;100897.63;;;18.68;29.78
27304;BME280;14791;52.392;13.092;2023-05-02T01:13:24;100898.48;;;18.59;29.81
27304;BME280;14791;52.392;13.092;2023-05-02T01:15:55;100901.61;;;18.54;29.83
27304;BME280;14791;52.392;13.092;2023-05-02T01:18:29;100897.63;;;18.48;29.90
27304;BME280;14791;52.392;13.092;2023-05-02T01:21:03;100901.95;;;18.45;29.98
27304;BME280;14791;52.392;13.092;2023-05-02T01:24:01;100907.99;;;18.43;30.04
27304;BME280;14791;52.392;13.092;2023-05-02T01:26:35;100908.28;;;18.40;30.12
27304;BME280;14791;52.392;13.092;2023-05-02T01:29:06;100904.30;;;18.35;30.20
27304;BME280;14791;52.392;13.092;2023-05-02T01:31:38;100909.84;;;18.33;30.26
27304;BME280;14791;52.392;13.092;2023-05-02T01:34:11;100910.56;;;18.35;30.28
27304;BME280;14791;52.392;13.092;2023-05-02T01:36:44;100914.11;;;18.36;30.30
27304;BME280;14791;52.392;13.092;2023-05-02T01:39:20;100915.97;;;18.35;30.40
27304;BME280;14791;52.392;13.092;2023-05-02T01:41:50;100918.80;;;18.34;30.46
27304;BME280;14791;52.392;13.092;2023-05-02T01:44:22;100914.53;;;18.31;30.54
27304;BME280;14791;52.392;13.092;2023-05-02T01:46:53;100922.80;;;18.30;30.63
27304;BME280;14791;52.392;13.092;2023-05-02T01:49:24;100929.70;;;18.28;30.74
27304;BME280;14791;52.392;13.092;2023-05-02T01:51:55;100925.30;;;18.27;30.79
27304;BME280;14791;52.392;13.092;2023-05-02T01:54:26;100933.66;;;18.24;30.86
27304;BME280;14791;52.392;13.092;2023-05-02T01:56:56;100938.34;;;18.22;30.93
27304;BME280;14791;52.392;13.092;2023-05-02T01:59:27;100936.31;;;18.20;30.96
27304;BME280;14791;52.392;13.092;2023-05-02T02:01:59;100942.69;;;18.19;31.14
27304;BME280;14791;52.392;13.092;2023-05-02T02:04:29;100951.44;;;18.17;31.25
27304;BME280;14791;52.392;13.092;2023-05-02T02:07:05;100952.06;;;18.15;31.34
27304;BME280;14791;52.392;13.092;2023-05-02T02:09:34;100949.64;;;18.12;31.44
27304;BME280;14791;52.392;13.092;2023-05-02T02:12:22;100950.22;;;18.05;31.49
27304;BME280;14791;52.392;13.092;2023-05-02T02:14:50;100956.81;;;18.07;31.60
27304;BME280;14791;52.392;13.092;2023-05-02T02:17:23;100947.64;;;18.04;31.69
27304;BME280;14791;52.392;13.092;2023-05-02T02:19:53;100951.82;;;18.02;31.87
27304;BME280;14791;52.392;13.092;2023-05-02T02:22:25;100958.11;;;18.03;31.98
27304;BME280;14791;52.392;13.092;2023-05-02T02:24:56;100954.52;;;18.02;31.96
27304;BME280;14791;52.392;13.092;2023-05-02T02:27:27;100964.86;;;18.03;32.15
27304;BME280;14791;52.392;13.092;2023-05-02T02:29:56;100967.69;;;18.01;32.18
27304;BME280;14791;52.392;13.092;2023-05-02T02:32:25;100967.19;;;18.02;32.37
27304;BME280;14791;52.392;13.092;2023-05-02T02:34:53;100972.72;;;18.00;32.40
27304;BME280;14791;52.392;13.092;2023-05-02T02:37:25;100974.07;;;18.00;32.54
27304;BME280;14791;52.392;13.092;2023-05-02T02:42:43;100984.53;;;17.99;32.77
27304;BME280;14791;52.392;13.092;2023-05-02T02:45:37;100994.91;;;17.94;32.86
27304;BME280;14791;52.392;13.092;2023-05-02T02:51:21;101011.34;;;17.76;33.04
27304;BME280;14791;52.392;13.092;2023-05-02T02:53:50;101020.52;;;17.63;33.17
27304;BME280;14791;52.392;13.092;2023-05-02T02:56:26;101024.74;;;17.56;33.29
27304;BME280;14791;52.392;13.092;2023-05-02T02:59:46;101024.80;;;17.51;33.45
27304;BME280;14791;52.392;13.092;2023-05-02T03:01:30;101032.91;;;17.45;33.51
27304;BME280;14791;52.392;13.092;2023-05-02T03:04:01;101037.73;;;17.41;33.67
27304;BME280;14791;52.392;13.092;2023-05-02T03:06:31;101049.27;;;17.38;33.76
27304;BME280;14791;52.392;13.092;2023-05-02T03:09:01;101044.52;;;17.36;33.83
27304;BME280;14791;52.392;13.092;2023-05-02T03:11:31;101042.80;;;17.35;33.92
27304;BME280;14791;52.392;13.092;2023-05-02T03:14:00;101050.05;;;17.34;33.98
27304;BME280;14791;52.392;13.092;2023-05-02T03:16:34;101047.84;;;17.34;34.04
27304;BME280;14791;52.392;13.092;2023-05-02T03:19:06;101038.39;;;17.34;34.07
27304;BME280;14791;52.392;13.092;2023-05-02T03:21:35;101042.06;;;17.33;34.01
27304;BME280;14791;52.392;13.092;2023-05-02T03:24:09;101054.94;;;17.35;34.09
27304;BME280;14791;52.392;13.092;2023-05-02T03:26:38;101058.72;;;17.38;34.09
27304;BME280;14791;52.392;13.092;2023-05-02T03:29:08;101053.32;;;17.38;34.11
27304;BME280;14791;52.392;13.092;2023-05-02T03:31:38;101052.70;;;17.40;34.10
27304;BME280;14791;52.392;13.092;2023-05-02T03:34:07;101061.30;;;17.39;34.12
27304;BME280;14791;52.392;13.092;2023-05-02T03:36:37;101065.47;;;17.38;34.18
27304;BME280;14791;52.392;13.092;2023-05-02T03:39:06;101071.52;;;17.36;34.23
27304;BME280;14791;52.392;13.092;2023-05-02T03:41:35;101075.31;;;17.33;34.30
27304;BME280;14791;52.392;13.092;2023-05-02T03:44:06;101078.16;;;17.32;34.37
27304;BME280;14791;52.392;13.092;2023-05-02T03:46:35;101074.73;;;17.30;34.47
27304;BME280;14791;52.392;13.092;2023-05-02T03:49:05;101083.83;;;17.29;34.54
27304;BME280;14791;52.392;13.092;2023-05-02T03:51:35;101084.80;;;17.28;34.64
27304;BME280;14791;52.392;13.092;2023-05-02T03:54:04;101086.14;;;17.28;34.67
27304;BME280;14791;52.392;13.092;2023-05-02T03:56:35;101086.64;;;17.27;34.76
27304;BME280;14791;52.392;13.092;2023-05-02T03:59:08;101096.59;;;17.27;34.79
27304;BME280;14791;52.392;13.092;2023-05-02T04:01:38;101089.61;;;17.24;34.86
27304;BME280;14791;52.392;13.092;2023-05-02T04:04:08;101096.83;;;17.23;34.95
27304;BME280;14791;52.392;13.092;2023-05-02T04:06:39;101100.88;;;17.23;34.98
27304;BME280;14791;52.392;13.092;2023-05-02T04:09:09;101085.69;;;17.22;34.96
27304;BME280;14791;52.392;13.092;2023-05-02T04:11:40;101098.18;;;17.23;35.00
27304;BME280;14791;52.392;13.092;2023-05-02T04:14:09;101109.36;;;17.25;34.98
27304;BME280;14791;52.392;13.092;2023-05-02T04:16:39;101101.99;;;17.27;35.00
27304;BME280;14791;52.392;13.092;2023-05-02T04:19:09;101105.42;;;17.29;35.03
27304;BME280;14791;52.392;13.092;2023-05-02T04:21:39;101107.01;;;17.31;35.06
27304;BME280;14791;52.392;13.092;2023-05-02T04:24:09;101119.00;;;17.33;35.05
27304;BME280;14791;52.392;13.092;2023-05-02T04:26:38;101129.57;;;17.36;35.05
27304;BME280;14791;52.392;13.092;2023-05-02T04:29:09;101129.92;;;17.37;35.05
27304;BME280;14791;52.392;13.092;2023-05-02T04:31:39;101125.25;;;17.39;35.07
27304;BME280;14791;52.392;13.092;2023-05-02T04:34:09;101125.98;;;17.41;35.04
27304;BME280;14791;52.392;13.092;2023-05-02T04:36:44;101127.69;;;17.42;34.97
27304;BME280;14791;52.392;13.092;2023-05-02T04:39:18;101138.48;;;17.42;34.98
27304;BME280;14791;52.392;13.092;2023-05-02T04:41:49;101141.80;;;17.40;34.97
27304;BME280;14791;52.392;13.092;2023-05-02T04:44:18;101145.86;;;17.40;35.00
27304;BME280;14791;52.392;13.092;2023-05-02T04:46:47;101148.70;;;17.38;34.98
27304;BME280;14791;52.392;13.092;2023-05-02T04:49:16;101156.66;;;17.40;35.06
27304;BME280;14791;52.392;13.092;2023-05-02T04:51:45;101158.39;;;17.41;35.06
27304;BME280;14791;52.392;13.092;2023-05-02T04:54:14;101157.39;;;17.42;35.10
27304;BME280;14791;52.392;13.092;2023-05-02T04:56:44;101156.27;;;17.44;35.13
27304;BME280;14791;52.392;13.092;2023-05-02T04:59:13;101167.45;;;17.46;35.12
27304;BME280;14791;52.392;13.092;2023-05-02T05:01:43;101172.47;;;17.44;35.12
27304;BME280;14791;52.392;13.092;2023-05-02T05:04:12;101182.08;;;17.43;35.14
27304;BME280;14791;52.392;13.092;2023-05-02T05:06:41;101182.69;;;17.41;35.17
27304;BME280;14791;52.392;13.092;2023-05-02T05:09:11;101190.41;;;17.40;35.23
27304;BME280;14791;52.392;13.092;2023-05-02T05:11:40;101186.36;;;17.40;35.27
27304;BME280;14791;52.392;13.092;2023-05-02T05:14:11;101192.76;;;17.39;35.31
27304;BME280;14791;52.392;13.092;2023-05-02T05:16:41;101194.72;;;17.37;35.37
27304;BME280;14791;52.392;13.092;2023-05-02T05:19:10;101194.72;;;17.37;35.42
27304;BME280;14791;52.392;13.092;2023-05-02T05:21:39;101199.86;;;17.40;35.47
27304;BME280;14791;52.392;13.092;2023-05-02T05:24:09;101194.72;;;17.37;35.41
27304;BME280;14791;52.392;13.092;2023-05-02T05:26:38;101211.39;;;17.42;35.49
27304;BME280;14791;52.392;13.092;2023-05-02T05:29:07;101215.83;;;17.43;35.45
27304;BME280;14791;52.392;13.092;2023-05-02T05:31:38;101218.53;;;17.43;35.51
27304;BME280;14791;52.392;13.092;2023-05-02T05:34:09;101215.95;;;17.41;35.57
27304;BME280;14791;52.392;13.092;2023-05-02T05:36:42;101221.08;;;17.44;35.63
27304;BME280;14791;52.392;13.092;2023-05-02T05:39:11;101227.22;;;17.47;35.64
27304;BME280;14791;52.392;13.092;2023-05-02T05:41:41;101225.37;;;17.47;35.68
27304;BME280;14791;52.392;13.092;2023-05-02T05:44:12;101232.12;;;17.47;35.68
27304;BME280;14791;52.392;13.092;2023-05-02T05:46:41;101231.50;;;17.49;35.75
27304;BME280;14791;52.392;13.092;2023-05-02T05:49:11;101243.89;;;17.52;35.80
27304;BME280;14791;52.392;13.092;2023-05-02T05:51:42;101251.88;;;17.53;35.85
27304;BME280;14791;52.392;13.092;2023-05-02T05:54:11;101247.21;;;17.55;35.92
27304;BME280;14791;52.392;13.092;2023-05-02T05:56:40;101253.31;;;17.57;35.97
27304;BME280;14791;52.392;13.092;2023-05-02T05:59:10;101252.23;;;17.60;36.12
27304;BME280;14791;52.392;13.092;2023-05-02T06:01:40;101259.92;;;17.64;36.16
27304;BME280;14791;52.392;13.092;2023-05-02T06:04:10;101266.80;;;17.69;36.19
27304;BME280;14791;52.392;13.092;2023-05-02T06:06:40;101268.77;;;17.72;36.25
27304;BME280;14791;52.392;13.092;2023-05-02T06:09:09;101271.09;;;17.77;36.30
27304;BME280;14791;52.392;13.092;2023-05-02T06:11:38;101273.29;;;17.83;36.42
27304;BME280;14791;52.392;13.092;2023-05-02T06:14:08;101271.91;;;17.94;36.48
27304;BME280;14791;52.392;13.092;2023-05-02T06:16:36;101274.80;;;18.02;36.44
27304;BME280;14791;52.392;13.092;2023-05-02T06:19:06;101284.56;;;18.15;36.46
27304;BME280;14791;52.392;13.092;2023-05-02T06:21:38;101293.25;;;18.24;36.44
27304;BME280;14791;52.392;13.092;2023-05-02T06:24:07;101300.58;;;18.33;36.44
27304;BME280;14791;52.392;13.092;2023-05-02T06:26:36;101302.16;;;18.41;36.39
27304;BME280;14791;52.392;13.092;2023-05-02T06:29:05;101307.13;;;18.52;36.38
27304;BME280;14791;52.392;13.092;2023-05-02T06:31:34;101317.50;;;18.62;36.39
27304;BME280;14791;52.392;13.092;2023-05-02T06:34:02;101319.41;;;18.71;36.38
27304;BME280;14791;52.392;13.092;2023-05-02T06:36:31;101325.92;;;18.80;36.38
27304;BME280;14791;52.392;13.092;2023-05-02T06:39:00;101335.06;;;18.88;36.38
27304;BME280;14791;52.392;13.092;2023-05-02T06:41:29;101351.75;;;18.94;36.35
27304;BME280;14791;52.392;13.092;2023-05-02T06:43:58;101353.22;;;18.98;36.24
27304;BME280;14791;52.392;13.092;2023-05-02T06:46:30;101352.94;;;19.01;36.30
27304;BME280;14791;52.392;13.092;2023-05-02T06:48:59;101362.29;;;19.02;36.34
27304;BME280;14791;52.392;13.092;2023-05-02T06:51:28;101361.78;;;19.03;36.37
27304;BME280;14791;52.392;13.092;2023-05-02T06:53:57;101364.38;;;19.04;36.40
27304;BME280;14791;52.392;13.092;2023-05-02T06:56:26;101378.25;;;19.05;36.41
27304;BME280;14791;52.392;13.092;2023-05-02T06:58:55;101383.09;;;19.02;36.40
27304;BME280;14791;52.392;13.092;2023-05-02T07:01:24;101383.09;;;19.02;36.49
27304;BME280;14791;52.392;13.092;2023-05-02T07:03:53;101387.44;;;18.99;36.53
27304;BME280;14791;52.392;13.092;2023-05-02T07:06:22;101390.14;;;18.99;36.63
27304;BME280;14791;52.392;13.092;2023-05-02T07:08:51;101391.49;;;18.99;36.72
27304;BME280;14791;52.392;13.092;2023-05-02T07:11:20;101396.91;;;18.99;36.78
27304;BME280;14791;52.392;13.092;2023-05-02T07:13:50;101404.02;;;19.00;36.87
27304;BME280;14791;52.392;13.092;2023-05-02T07:16:19;101399.96;;;19.00;36.98
27304;BME280;14791;52.392;13.092;2023-05-02T07:18:48;101410.17;;;19.02;37.06
27304;BME280;14791;52.392;13.092;2023-05-02T07:21:17;101414.34;;;19.06;37.23
27304;BME280;14791;52.392;13.092;2023-05-02T07:23:46;101411.08;;;19.12;37.26
27304;BME280;14791;52.392;13.092;2023-05-02T07:26:15;101402.78;;;19.19;37.21
27304;BME280;14791;52.392;13.092;2023-05-02T07:28:45;101409.14;;;19.24;37.24
27304;BME280;14791;52.392;13.092;2023-05-02T07:31:14;101410.09;;;19.28;37.25
27304;BME280;14791;52.392;13.092;2023-05-02T07:33:43;101422.01;;;19.31;37.17
27304;BME280;14791;52.392;13.092;2023-05-02T07:36:12;101421.38;;;19.33;37.21
27304;BME280;14791;52.392;13.092;2023-05-02T07:38:41;101425.79;;;19.34;37.25
27304;BME280;14791;52.392;13.092;2023-05-02T07:41:10;101433.67;;;19.38;37.30
27304;BME280;14791;52.392;13.092;2023-05-02T07:43:41;101438.08;;;19.39;37.29
27304;BME280;14791;52.392;13.092;2023-05-02T07:46:10;101437.73;;;19.38;37.28
27304;BME280;14791;52.392;13.092;2023-05-02T07:48:39;101437.73;;;19.38;37.34
27304;BME280;14791;52.392;13.092;2023-05-02T07:51:10;101438.08;;;19.39;37.40
27304;BME280;14791;52.392;13.092;2023-05-02T07:53:39;101444.85;;;19.39;37.34
27304;BME280;14791;52.392;13.092;2023-05-02T07:56:08;101452.25;;;19.37;37.33
27304;BME280;14791;52.392;13.092;2023-05-02T07:58:37;101451.17;;;19.33;37.40
27304;BME280;14791;52.392;13.092;2023-05-02T08:01:06;101449.72;;;19.29;37.34
27304;BME280;14791;52.392;13.092;2023-05-02T08:03:35;101445.43;;;19.27;37.43
27304;BME280;14791;52.392;13.092;2023-05-02T08:06:04;101457.27;;;19.26;37.50
27304;BME280;14791;52.392;13.092;2023-05-02T08:08:33;101450.22;;;19.29;37.51
27304;BME280;14791;52.392;13.092;2023-05-02T08:11:02;101460.30;;;19.32;37.53
27304;BME280;14791;52.392;13.092;2023-05-02T08:13:31;101461.48;;;19.40;37.58
27304;BME280;14791;52.392;13.092;2023-05-02T08:16:00;101462.51;;;19.48;37.56
27304;BME280;14791;52.392;13.092;2023-05-02T08:18:29;101466.27;;;19.57;37.50
27304;BME280;14791;52.392;13.092;2023-05-02T08:20:58;101469.14;;;19.65;37.52
27304;BME280;14791;52.392;13.092;2023-05-02T08:23:27;101477.57;;;19.78;37.45
27304;BME280;14791;52.392;13.092;2023-05-02T08:25:55;101477.13;;;19.88;37.42
27304;BME280;14791;52.392;13.092;2023-05-02T08:28:24;101468.52;;;19.98;37.36
27304;BME280;14791;52.392;13.092;2023-05-02T08:30:53;101468.33;;;20.05;37.25
27304;BME280;14791;52.392;13.092;2023-05-02T08:33:22;101475.05;;;20.11;37.10
27304;BME280;14791;52.392;13.092;2023-05-02T08:35:51;101477.13;;;20.13;37.03
27304;BME280;14791;52.392;13.092;2023-05-02T08:38:20;101474.41;;;20.13;36.99
27304;BME280;14791;52.392;13.092;2023-05-02T08:40:49;101479.20;;;20.15;37.09
27304;BME280;14791;52.392;13.092;2023-05-02T08:43:18;101481.50;;;20.19;37.09
27304;BME280;14791;52.392;13.092;2023-05-02T08:45:49;101489.44;;;20.27;37.07
27304;BME280;14791;52.392;13.092;2023-05-02T08:48:20;101491.31;;;20.36;37.07
27304;BME280;14791;52.392;13.092;2023-05-02T08:50:51;101492.81;;;20.44;37.05
27304;BME280;14791;52.392;13.092;2023-05-02T08:53:21;101497.41;;;20.53;36.93
27304;BME280;14791;52.392;13.092;2023-05-02T08:55:51;101495.23;;;20.63;36.79
27304;BME280;14791;52.392;13.092;2023-05-02T08:58:21;101501.52;;;20.73;36.78
27304;BME280;14791;52.392;13.092;2023-05-02T09:00:50;101511.53;;;20.82;36.72
27304;BME280;14791;52.392;13.092;2023-05-02T09:03:30;101516.74;;;20.89;36.59
27304;BME280;14791;52.392;13.092;2023-05-02T09:06:10;101518.91;;;20.95;36.50
27304;BME280;14791;52.392;13.092;2023-05-02T09:08:44;101524.38;;;20.99;36.42
27304;BME280;14791;52.392;13.092;2023-05-02T09:11:15;101532.53;;;20.99;36.34
27304;BME280;14791;52.392;13.092;2023-05-02T09:13:46;101534.60;;;21.01;36.29
27304;BME280;14791;52.392;13.092;2023-05-02T09:16:17;101541.77;;;21.02;36.23
27304;BME280;14791;52.392;13.092;2023-05-02T09:18:53;101543.39;;;20.99;36.16
27304;BME280;14791;52.392;13.092;2023-05-02T09:21:24;101550.13;;;20.95;36.18
27304;BME280;14791;52.392;13.092;2023-05-02T09:23:55;101552.26;;;20.92;36.28
27304;BME280;14791;52.392;13.092;2023-05-02T09:26:27;101551.70;;;20.88;36.32
27304;BME280;14791;52.392;13.092;2023-05-02T09:29:03;101552.97;;;20.84;36.42
27304;BME280;14791;52.392;13.092;2023-05-02T09:31:34;101562.39;;;20.80;36.53
27304;BME280;14791;52.392;13.092;2023-05-02T09:34:16;101566.13;;;20.79;36.69
27304;BME280;14791;52.392;13.092;2023-05-02T09:36:45;101569.91;;;20.82;36.79
27304;BME280;14791;52.392;13.092;2023-05-02T09:39:17;101562.48;;;20.84;36.88
27304;BME280;14791;52.392;13.092;2023-05-02T09:41:47;101568.71;;;20.90;36.85
27304;BME280;14791;52.392;13.092;2023-05-02T09:44:18;101570.13;;;20.94;36.77
27304;BME280;14791;52.392;13.092;2023-05-02T09:46:51;101573.05;;;20.97;36.65
27304;BME280;14791;52.392;13.092;2023-05-02T09:49:38;101570.33;;;20.97;36.51
27304;BME280;14791;52.392;13.092;2023-05-02T09:52:18;101580.00;;;20.95;36.41
27304;BME280;14791;52.392;13.092;2023-05-02T09:54:48;101583.27;;;20.89;36.46
27304;BME280;14791;52.392;13.092;2023-05-02T09:57:19;101589.28;;;20.83;36.54
27304;BME280;14791;52.392;13.092;2023-05-02T09:59:56;101594.62;;;20.79;36.52
27304;BME280;14791;52.392;13.092;2023-05-02T10:02:27;101595.68;;;20.72;36.56
27304;BME280;14791;52.392;13.092;2023-05-02T10:04:56;101597.02;;;20.63;36.58
27304;BME280;14791;52.392;13.092;2023-05-02T10:07:26;101599.55;;;20.54;36.73
27304;BME280;14791;52.392;13.092;2023-05-02T10:09:57;101605.86;;;20.49;37.04
27304;BME280;14791;52.392;13.092;2023-05-02T10:12:27;101607.06;;;20.41;37.19
27304;BME280;14791;52.392;13.092;2023-05-02T10:14:59;101619.74;;;20.31;37.34
27304;BME280;14791;52.392;13.092;2023-05-02T10:17:32;101635.25;;;20.19;37.41
27304;BME280;14791;52.392;13.092;2023-05-02T10:20:04;101642.89;;;20.04;37.46
27304;BME280;14791;52.392;13.092;2023-05-02T10:22:34;101652.50;;;19.87;37.57
27304;BME280;14791;52.392;13.092;2023-05-02T10:25:04;101656.63;;;19.70;37.73
27304;BME280;14791;52.392;13.092;2023-05-02T10:27:34;101661.64;;;19.54;37.94
27304;BME280;14791;52.392;13.092;2023-05-02T10:30:05;101666.02;;;19.40;38.13
27304;BME280;14791;52.392;13.092;2023-05-02T10:32:36;101667.67;;;19.25;38.29
27304;BME280;14791;52.392;13.092;2023-05-02T10:35:06;101669.78;;;19.10;38.46
27304;BME280;14791;52.392;13.092;2023-05-02T10:37:36;101683.98;;;18.97;38.70
27304;BME280;14791;52.392;13.092;2023-05-02T10:40:11;101684.50;;;18.85;38.76
27304;BME280;14791;52.392;13.092;2023-05-02T10:42:43;101687.44;;;18.71;38.83
27304;BME280;14791;52.392;13.092;2023-05-02T10:45:34;101681.28;;;18.58;38.90
27304;BME280;14791;52.392;13.092;2023-05-02T10:48:16;101695.44;;;18.44;39.02
27304;BME280;14791;52.392;13.092;2023-05-02T10:50:55;101694.57;;;18.33;39.02
27304;BME280;14791;52.392;13.092;2023-05-02T10:53:34;101706.36;;;18.20;39.03
27304;BME280;14791;52.392;13.092;2023-05-02T10:56:18;101710.03;;;18.14;39.06
27304;BME280;14791;52.392;13.092;2023-05-02T10:58:53;101709.99;;;18.02;39.00
27304;BME280;14791;52.392;13.092;2023-05-02T11:01:33;101721.16;;;17.92;38.90
27304;BME280;14791;52.392;13.092;2023-05-02T11:04:06;101714.75;;;17.88;38.65
27304;BME280;14791;52.392;13.092;2023-05-02T11:07:15;101738.03;;;17.77;38.48
27304;BME280;14791;52.392;13.092;2023-05-02T11:11:48;101719.77;;;17.57;38.41
27304;BME280;14791;52.392;13.092;2023-05-02T11:22:31;101736.62;;;17.36;38.65
27304;BME280;14791;52.392;13.092;2023-05-02T11:25:01;101745.58;;;17.37;38.65
27304;BME280;14791;52.392;13.092;2023-05-02T11:30:10;101743.80;;;17.49;38.59
27304;BME280;14791;52.392;13.092;2023-05-02T11:35:21;101746.84;;;17.68;38.59
27304;BME280;14791;52.392;13.092;2023-05-02T11:37:55;101751.98;;;17.84;38.46
27304;BME280;14791;52.392;13.092;2023-05-02T11:40:26;101753.60;;;17.98;38.24
27304;BME280;14791;52.392;13.092;2023-05-02T11:42:57;101762.25;;;18.09;37.92
27304;BME280;14791;52.392;13.092;2023-05-02T11:45:34;101757.70;;;18.15;37.76
27304;BME280;14791;52.392;13.092;2023-05-02T11:48:06;101765.84;;;18.20;37.57
27304;BME280;14791;52.392;13.092;2023-05-02T11:50:43;101764.36;;;18.22;37.54
27304;BME280;14791;52.392;13.092;2023-05-02T11:53:14;101770.30;;;18.27;37.53
27304;BME280;14791;52.392;13.092;2023-05-02T11:55:48;101776.20;;;18.32;37.48
27304;BME280;14791;52.392;13.092;2023-05-02T11:58:19;101774.11;;;18.36;37.22
27304;BME280;14791;52.392;13.092;2023-05-02T12:00:50;101770.44;;;18.37;37.13
27304;BME280;14791;52.392;13.092;2023-05-02T12:03:25;101776.70;;;18.37;37.15
27304;BME280;14791;52.392;13.092;2023-05-02T12:05:54;101780.90;;;18.41;37.20
27304;BME280;14791;52.392;13.092;2023-05-02T12:08:25;101785.91;;;18.46;37.11
27304;BME280;14791;52.392;13.092;2023-05-02T12:10:55;101779.79;;;18.49;37.01
27304;BME280;14791;52.392;13.092;2023-05-02T12:13:25;101772.77;;;18.53;36.93
27304;BME280;14791;52.392;13.092;2023-05-02T12:15:54;101780.53;;;18.57;36.85
27304;BME280;14791;52.392;13.092;2023-05-02T12:18:25;101774.87;;;18.60;36.78
27304;BME280;14791;52.392;13.092;2023-05-02T12:20:55;101774.28;;;18.68;36.83
27304;BME280;14791;52.392;13.092;2023-05-02T12:23:24;101780.09;;;18.80;36.81
27304;BME280;14791;52.392;13.092;2023-05-02T12:25:53;101782.17;;;18.94;36.67
27304;BME280;14791;52.392;13.092;2023-05-02T12:28:23;101782.43;;;19.02;36.58
27304;BME280;14791;52.392;13.092;2023-05-02T12:30:52;101795.09;;;19.18;36.43
27304;BME280;14791;52.392;13.092;2023-05-02T12:33:20;101786.70;;;19.32;36.32
27304;BME280;14791;52.392;13.092;2023-05-02T12:35:50;101787.02;;;19.50;36.26
27304;BME280;14791;52.392;13.092;2023-05-02T12:38:20;101791.11;;;19.88;36.28
27304;BME280;14791;52.392;13.092;2023-05-02T12:40:52;101784.05;;;20.24;35.77
27304;BME280;14791;52.392;13.092;2023-05-02T12:43:23;101789.00;;;20.60;35.49
27304;BME280;14791;52.392;13.092;2023-05-02T12:46:09;101781.94;;;21.10;35.38
27304;BME280;14791;52.392;13.092;2023-05-02T12:48:38;101794.66;;;21.69;35.04
27304;BME280;14791;52.392;13.092;2023-05-02T12:51:20;101789.18;;;22.23;34.37
27304;BME280;14791;52.392;13.092;2023-05-02T12:53:43;101798.38;;;22.56;33.81
27304;BME280;14791;52.392;13.092;2023-05-02T12:56:13;101797.73;;;22.71;32.92
27304;BME280;14791;52.392;13.092;2023-05-02T12:58:45;101800.42;;;22.67;32.56
27304;BME280;14791;52.392;13.092;2023-05-02T13:01:15;101804.06;;;22.62;32.46
27304;BME280;14791;52.392;13.092;2023-05-02T13:03:44;101812.02;;;22.60;32.50
27304;BME280;14791;52.392;13.092;2023-05-02T13:06:13;101805.77;;;22.73;32.69
27304;BME280;14791;52.392;13.092;2023-05-02T13:08:42;101799.22;;;22.93;32.59
27304;BME280;14791;52.392;13.092;2023-05-02T13:11:11;101815.42;;;23.05;32.16
27304;BME280;14791;52.392;13.092;2023-05-02T13:13:41;101808.41;;;23.02;31.59
27304;BME280;14791;52.392;13.092;2023-05-02T13:16:10;101833.07;;;22.91;31.27
27304;BME280;14791;52.392;13.092;2023-05-02T13:18:38;101821.52;;;22.69;31.30
27304;BME280;14791;52.392;13.092;2023-05-02T13:21:08;101832.64;;;22.48;31.40
27304;BME280;14791;52.392;13.092;2023-05-02T13:23:36;101824.55;;;22.33;31.43